createdAt,value
2017-04-14T00:00:50.754Z,1003.9
2017-04-14T00:01:52.559Z,1003.9
2017-04-14T00:02:54.365Z,1003.8
2017-04-14T00:03:56.228Z,1003.9
2017-04-14T00:04:58.730Z,1003.9
2017-04-14T00:06:00.930Z,1003.9
2017-04-14T00:07:02.732Z,1003.9
2017-04-14T00:08:04.887Z,1003.9
2017-04-14T00:09:06.692Z,1003.9
2017-04-14T00:10:08.857Z,1003.8
2017-04-14T00:11:10.671Z,1003.9
2017-04-14T00:12:12.514Z,1003.8
2017-04-14T00:13:14.665Z,1003.8
2017-04-14T00:14:16.475Z,1003.8
2017-04-14T00:15:18.316Z,1003.8
2017-04-14T00:16:20.122Z,1003.7
2017-04-14T00:17:21.934Z,1003.9
2017-04-14T00:18:23.741Z,1003.8
2017-04-14T00:19:25.552Z,1003.9
2017-04-14T00:20:27.363Z,1003.8
2017-04-14T00:21:29.174Z,1003.8
2017-04-14T00:22:30.987Z,1003.8
2017-04-14T00:23:33.142Z,1003.8
2017-04-14T00:24:35.306Z,1003.8
2017-04-14T00:25:37.455Z,1003.8
2017-04-14T00:26:39.267Z,1003.8
2017-04-14T00:27:41.418Z,1003.8
2017-04-14T00:28:43.570Z,1003.8
2017-04-14T00:29:45.706Z,1003.7
2017-04-14T00:30:47.513Z,1003.7
2017-04-14T00:31:49.318Z,1003.7
2017-04-14T00:32:51.124Z,1003.7
2017-04-14T00:33:52.937Z,1003.7
2017-04-14T00:34:55.074Z,1003.8
2017-04-14T00:35:57.219Z,1003.8
2017-04-14T00:36:59.373Z,1003.7
2017-04-14T00:38:01.181Z,1003.7
2017-04-14T00:39:02.996Z,1003.7
2017-04-14T00:40:04.796Z,1003.7
2017-04-14T00:41:06.613Z,1003.8
2017-04-14T00:42:08.424Z,1003.7
2017-04-14T00:43:10.232Z,1003.8
2017-04-14T00:44:12.035Z,1003.7
2017-04-14T00:45:14.193Z,1003.8
2017-04-14T00:46:16.005Z,1003.8
2017-04-14T00:47:17.823Z,1003.7
2017-04-14T00:48:19.629Z,1003.8
2017-04-14T00:49:22.144Z,1003.7
2017-04-14T00:50:23.993Z,1003.8
2017-04-14T00:51:25.809Z,1003.8
2017-04-14T00:52:27.609Z,1003.8
2017-04-14T00:53:29.435Z,1003.8
2017-04-14T00:54:31.244Z,1003.8
2017-04-14T00:55:33.048Z,1003.9
2017-04-14T00:56:34.868Z,1003.8
2017-04-14T00:57:36.676Z,1003.8
2017-04-14T00:58:38.820Z,1003.8
2017-04-14T00:59:40.685Z,1003.8
2017-04-14T01:00:42.831Z,1003.8
2017-04-14T01:01:44.642Z,1003.8
2017-04-14T01:02:46.453Z,1003.9
2017-04-14T01:03:48.261Z,1003.9
2017-04-14T01:04:50.749Z,1003.8
2017-04-14T01:05:52.572Z,1003.8
2017-04-14T01:06:54.416Z,1003.8
2017-04-14T01:07:56.246Z,1003.8
2017-04-14T01:08:58.382Z,1003.8
2017-04-14T01:10:00.538Z,1003.8
2017-04-14T01:11:02.677Z,1003.8
2017-04-14T01:12:04.484Z,1003.8
2017-04-14T01:13:06.288Z,1003.7
2017-04-14T01:14:08.135Z,1003.8
2017-04-14T01:15:09.955Z,1003.7
2017-04-14T01:16:11.761Z,1003.7
2017-04-14T01:17:13.558Z,1003.6
2017-04-14T01:18:15.724Z,1003.6
2017-04-14T01:19:17.529Z,1003.6
2017-04-14T01:20:19.347Z,1003.6
2017-04-14T01:21:21.142Z,1003.6
2017-04-14T01:22:22.956Z,1003.6
2017-04-14T01:23:24.765Z,1003.6
2017-04-14T01:24:26.570Z,1003.6
2017-04-14T01:25:28.421Z,1003.6
2017-04-14T01:26:30.221Z,1003.6
2017-04-14T01:27:32.032Z,1003.6
2017-04-14T01:28:33.852Z,1003.6
2017-04-14T01:29:36.327Z,1003.6
2017-04-14T01:30:38.143Z,1003.6
2017-04-14T01:31:39.951Z,1003.6
2017-04-14T01:32:41.766Z,1003.7
2017-04-14T01:33:43.568Z,1003.7
2017-04-14T01:34:45.425Z,1003.7
2017-04-14T01:35:47.580Z,1003.6
2017-04-14T01:36:49.384Z,1003.7
2017-04-14T01:37:51.249Z,1003.7
2017-04-14T01:38:53.393Z,1003.7
2017-04-14T01:39:55.881Z,1003.7
2017-04-14T01:40:57.685Z,1003.7
2017-04-14T01:41:59.495Z,1003.7
2017-04-14T01:43:01.642Z,1003.7
2017-04-14T01:44:04.149Z,1003.7
2017-04-14T01:45:05.958Z,1003.7
2017-04-14T01:46:07.775Z,1003.7
2017-04-14T01:47:09.587Z,1003.7
2017-04-14T01:48:11.390Z,1003.7
2017-04-14T01:49:13.876Z,1003.7
2017-04-14T01:50:15.681Z,1003.7
2017-04-14T01:51:17.823Z,1003.6
2017-04-14T01:52:19.664Z,1003.6
2017-04-14T01:53:21.813Z,1003.6
2017-04-14T01:54:23.968Z,1003.6
2017-04-14T01:55:26.112Z,1003.6
2017-04-14T01:56:27.912Z,1003.6
2017-04-14T01:57:29.718Z,1003.6
2017-04-14T01:58:31.525Z,1003.6
2017-04-14T01:59:33.346Z,1003.6
2017-04-14T02:00:35.146Z,1003.6
2017-04-14T02:01:36.955Z,1003.6
2017-04-14T02:02:39.093Z,1003.7
2017-04-14T02:03:41.241Z,1003.7
2017-04-14T02:04:43.396Z,1003.6
2017-04-14T02:05:45.200Z,1003.7
2017-04-14T02:06:47.013Z,1003.7
2017-04-14T02:07:48.834Z,1003.6
2017-04-14T02:08:50.983Z,1003.7
2017-04-14T02:09:53.811Z,1003.6
2017-04-14T02:10:55.614Z,1003.7
2017-04-14T02:11:57.428Z,1003.6
2017-04-14T02:12:59.235Z,1003.7
2017-04-14T02:14:01.397Z,1003.7
2017-04-14T02:15:03.210Z,1003.7
2017-04-14T02:16:05.029Z,1003.7
2017-04-14T02:17:06.833Z,1003.6
2017-04-14T02:18:08.653Z,1003.7
2017-04-14T02:19:10.462Z,1003.6
2017-04-14T02:20:12.293Z,1003.6
2017-04-14T02:21:14.103Z,1003.7
2017-04-14T02:22:15.920Z,1003.6
2017-04-14T02:23:17.775Z,1003.6
2017-04-14T02:24:19.576Z,1003.6
2017-04-14T02:25:21.392Z,1003.7
2017-04-14T02:26:23.200Z,1003.6
2017-04-14T02:27:25.015Z,1003.6
2017-04-14T02:28:26.830Z,1003.7
2017-04-14T02:29:28.662Z,1003.7
2017-04-14T02:30:30.472Z,1003.7
2017-04-14T02:31:32.271Z,1003.7
2017-04-14T02:32:34.146Z,1003.7
2017-04-14T02:33:36.281Z,1003.6
2017-04-14T02:34:38.081Z,1003.6
2017-04-14T02:35:39.900Z,1003.7
2017-04-14T02:36:42.040Z,1003.6
2017-04-14T02:37:43.858Z,1003.7
2017-04-14T02:38:45.704Z,1003.6
2017-04-14T02:39:47.503Z,1003.6
2017-04-14T02:40:49.662Z,1003.7
2017-04-14T02:41:51.465Z,1003.6
2017-04-14T02:42:53.608Z,1003.6
2017-04-14T02:43:55.411Z,1003.7
2017-04-14T02:44:57.564Z,1003.6
2017-04-14T02:45:59.381Z,1003.7
2017-04-14T02:47:01.179Z,1003.6
2017-04-14T02:48:02.998Z,1003.6
2017-04-14T02:49:04.810Z,1003.6
2017-04-14T02:50:06.621Z,1003.6
2017-04-14T02:51:08.435Z,1003.6
2017-04-14T02:52:10.241Z,1003.6
2017-04-14T02:53:12.058Z,1003.6
2017-04-14T02:54:13.865Z,1003.7
2017-04-14T02:55:15.679Z,1003.7
2017-04-14T02:56:17.471Z,1003.7
2017-04-14T02:57:19.626Z,1003.7
2017-04-14T02:58:21.780Z,1003.7
2017-04-14T02:59:23.925Z,1003.7
2017-04-14T03:00:25.729Z,1003.7
2017-04-14T03:01:27.537Z,1003.7
2017-04-14T03:02:29.688Z,1003.7
2017-04-14T03:03:31.505Z,1003.7
2017-04-14T03:04:33.652Z,1003.7
2017-04-14T03:05:35.452Z,1003.7
2017-04-14T03:06:37.602Z,1003.7
2017-04-14T03:07:39.412Z,1003.7
2017-04-14T03:08:41.232Z,1003.7
2017-04-14T03:09:43.382Z,1003.7
2017-04-14T03:10:45.183Z,1003.7
2017-04-14T03:11:46.995Z,1003.7
2017-04-14T03:12:48.800Z,1003.8
2017-04-14T03:13:50.604Z,1003.8
2017-04-14T03:14:52.409Z,1003.8
2017-04-14T03:15:54.218Z,1003.7
2017-04-14T03:16:56.019Z,1003.7
2017-04-14T03:17:57.827Z,1003.7
2017-04-14T03:18:59.980Z,1003.7
2017-04-14T03:20:02.116Z,1003.8
2017-04-14T03:21:03.915Z,1003.8
2017-04-14T03:22:06.073Z,1003.8
2017-04-14T03:23:07.872Z,1003.8
2017-04-14T03:24:10.026Z,1003.8
2017-04-14T03:25:12.194Z,1003.7
2017-04-14T03:26:14.002Z,1003.9
2017-04-14T03:27:15.817Z,1003.8
2017-04-14T03:28:17.634Z,1003.7
2017-04-14T03:29:19.442Z,1003.8
2017-04-14T03:30:21.608Z,1003.8
2017-04-14T03:31:23.426Z,1003.8
2017-04-14T03:32:25.241Z,1003.8
2017-04-14T03:33:27.042Z,1003.8
2017-04-14T03:34:28.857Z,1003.8
2017-04-14T03:35:30.661Z,1003.8
2017-04-14T03:36:32.470Z,1003.9
2017-04-14T03:37:34.618Z,1003.8
2017-04-14T03:38:36.456Z,1003.8
2017-04-14T03:39:38.256Z,1003.7
2017-04-14T03:40:40.075Z,1003.8
2017-04-14T03:41:41.870Z,1003.8
2017-04-14T03:42:43.685Z,1003.8
2017-04-14T03:43:45.831Z,1003.8
2017-04-14T03:44:47.654Z,1003.8
2017-04-14T03:45:49.610Z,1003.8
2017-04-14T03:46:51.757Z,1003.8
2017-04-14T03:47:53.908Z,1003.7
2017-04-14T03:48:56.044Z,1003.8
2017-04-14T03:49:58.209Z,1003.7
2017-04-14T03:51:00.028Z,1003.7
2017-04-14T03:52:01.826Z,1003.7
2017-04-14T03:53:03.637Z,1003.7
2017-04-14T03:54:05.437Z,1003.7
2017-04-14T03:55:07.261Z,1003.7
2017-04-14T03:56:09.101Z,1003.7
2017-04-14T03:57:10.909Z,1003.7
2017-04-14T03:58:12.717Z,1003.7
2017-04-14T03:59:14.869Z,1003.7
2017-04-14T04:00:17.016Z,1003.8
2017-04-14T04:01:18.828Z,1003.8
2017-04-14T04:02:20.627Z,1003.8
2017-04-14T04:03:22.785Z,1003.8
2017-04-14T04:04:24.585Z,1003.8
2017-04-14T04:05:26.395Z,1003.9
2017-04-14T04:06:28.195Z,1003.9
2017-04-14T04:07:30.341Z,1003.8
2017-04-14T04:08:32.157Z,1003.9
2017-04-14T04:09:33.963Z,1003.9
2017-04-14T04:10:35.768Z,1003.9
2017-04-14T04:11:37.578Z,1003.9
2017-04-14T04:12:39.718Z,1004
2017-04-14T04:13:42.232Z,1003.9
2017-04-14T04:14:44.038Z,1003.9
2017-04-14T04:15:45.854Z,1003.9
2017-04-14T04:16:47.661Z,1003.9
2017-04-14T04:17:49.812Z,1004
2017-04-14T04:18:51.616Z,1004
2017-04-14T04:19:53.421Z,1004
2017-04-14T04:20:55.572Z,1004
2017-04-14T04:21:57.387Z,1004
2017-04-14T04:22:59.527Z,1004
2017-04-14T04:24:01.339Z,1004.1
2017-04-14T04:25:03.482Z,1004.1
2017-04-14T04:26:05.298Z,1004.1
2017-04-14T04:27:07.488Z,1004
2017-04-14T04:28:09.336Z,1004.1
2017-04-14T04:29:11.494Z,1004.1
2017-04-14T04:30:13.637Z,1004.1
2017-04-14T04:31:16.140Z,1004.1
2017-04-14T04:32:18.275Z,1004.1
2017-04-14T04:33:20.423Z,1004.1
2017-04-14T04:34:22.279Z,1004.1
2017-04-14T04:35:24.417Z,1004.1
2017-04-14T04:36:26.232Z,1004.1
2017-04-14T04:37:28.038Z,1004.1
2017-04-14T04:38:30.189Z,1004.1
2017-04-14T04:39:32.320Z,1004.2
2017-04-14T04:40:34.179Z,1004.1
2017-04-14T04:41:35.986Z,1004.2
2017-04-14T04:42:37.789Z,1004.1
2017-04-14T04:43:39.607Z,1004.1
2017-04-14T04:44:41.450Z,1004.2
2017-04-14T04:45:43.269Z,1004.2
2017-04-14T04:46:45.423Z,1004.2
2017-04-14T04:47:47.226Z,1004.3
2017-04-14T04:48:49.391Z,1004.3
2017-04-14T04:49:51.198Z,1004.2
2017-04-14T04:50:53.015Z,1004.3
2017-04-14T04:51:54.813Z,1004.3
2017-04-14T04:52:56.617Z,1004.4
2017-04-14T04:53:58.423Z,1004.4
2017-04-14T04:55:00.225Z,1004.4
2017-04-14T04:56:02.033Z,1004.4
2017-04-14T04:57:03.829Z,1004.4
2017-04-14T04:58:05.690Z,1004.5
2017-04-14T04:59:07.500Z,1004.4
2017-04-14T05:00:09.314Z,1004.4
2017-04-14T05:01:11.109Z,1004.4
2017-04-14T05:02:12.924Z,1004.5
2017-04-14T05:03:14.730Z,1004.4
2017-04-14T05:04:16.537Z,1004.4
2017-04-14T05:05:18.348Z,1004.4
2017-04-14T05:06:20.148Z,1004.4
2017-04-14T05:07:21.957Z,1004.5
2017-04-14T05:08:24.452Z,1004.4
2017-04-14T05:09:26.588Z,1004.4
2017-04-14T05:10:28.402Z,1004.5
2017-04-14T05:11:30.214Z,1004.5
2017-04-14T05:12:32.064Z,1004.5
2017-04-14T05:13:33.870Z,1004.5
2017-04-14T05:14:36.015Z,1004.5
2017-04-14T05:15:37.825Z,1004.4
2017-04-14T05:16:39.659Z,1004.5
2017-04-14T05:17:41.476Z,1004.5
2017-04-14T05:18:43.277Z,1004.5
2017-04-14T05:19:45.784Z,1004.5
2017-04-14T05:20:47.578Z,1004.6
2017-04-14T05:21:49.397Z,1004.5
2017-04-14T05:22:51.210Z,1004.6
2017-04-14T05:23:53.375Z,1004.5
2017-04-14T05:24:55.190Z,1004.5
2017-04-14T05:25:57.333Z,1004.5
2017-04-14T05:26:59.142Z,1004.5
2017-04-14T05:28:01.289Z,1004.6
2017-04-14T05:29:03.105Z,1004.6
2017-04-14T05:30:04.918Z,1004.6
2017-04-14T05:31:06.735Z,1004.6
2017-04-14T05:32:08.887Z,1004.6
2017-04-14T05:33:10.691Z,1004.6
2017-04-14T05:34:12.494Z,1004.7
2017-04-14T05:35:14.641Z,1004.7
2017-04-14T05:36:16.442Z,1004.7
2017-04-14T05:37:18.612Z,1004.7
2017-04-14T05:38:20.418Z,1004.7
2017-04-14T05:39:22.228Z,1004.7
2017-04-14T05:40:24.035Z,1004.7
2017-04-14T05:41:25.852Z,1004.7
2017-04-14T05:42:27.645Z,1004.7
2017-04-14T05:43:29.467Z,1004.7
2017-04-14T05:44:31.273Z,1004.8
2017-04-14T05:45:33.093Z,1004.7
2017-04-14T05:46:34.902Z,1004.7
2017-04-14T05:47:36.703Z,1004.7
2017-04-14T05:48:38.501Z,1004.8
2017-04-14T05:49:40.334Z,1004.8
2017-04-14T05:50:42.143Z,1004.8
2017-04-14T05:51:43.955Z,1004.8
2017-04-14T05:52:45.767Z,1004.8
2017-04-14T05:53:47.592Z,1004.8
2017-04-14T05:54:49.402Z,1004.8
2017-04-14T05:55:51.201Z,1004.8
2017-04-14T05:56:53.013Z,1004.9
2017-04-14T05:57:55.206Z,1004.8
2017-04-14T05:58:57.369Z,1004.9
2017-04-14T05:59:59.865Z,1004.8
2017-04-14T06:01:02.008Z,1004.8
2017-04-14T06:02:03.857Z,1004.9
2017-04-14T06:03:05.689Z,1004.9
2017-04-14T06:04:07.501Z,1004.8
2017-04-14T06:05:09.644Z,1004.9
2017-04-14T06:06:11.830Z,1004.9
2017-04-14T06:07:13.673Z,1004.9
2017-04-14T06:08:15.485Z,1005
2017-04-14T06:09:17.624Z,1004.9
2017-04-14T06:10:19.448Z,1004.9
2017-04-14T06:11:21.585Z,1004.9
2017-04-14T06:12:23.734Z,1004.9
2017-04-14T06:13:25.535Z,1004.9
2017-04-14T06:14:27.683Z,1004.9
2017-04-14T06:15:29.493Z,1004.9
2017-04-14T06:16:31.346Z,1005
2017-04-14T06:17:33.150Z,1005
2017-04-14T06:18:34.963Z,1004.9
2017-04-14T06:19:36.763Z,1004.9
2017-04-14T06:20:38.573Z,1005
2017-04-14T06:21:40.380Z,1005
2017-04-14T06:22:42.195Z,1005
2017-04-14T06:23:44.009Z,1005
2017-04-14T06:24:45.825Z,1005
2017-04-14T06:25:47.639Z,1005
2017-04-14T06:26:49.468Z,1005
2017-04-14T06:27:51.284Z,1005
2017-04-14T06:28:53.127Z,1005
2017-04-14T06:29:54.969Z,1005
2017-04-14T06:30:56.780Z,1005.1
2017-04-14T06:31:58.988Z,1005
2017-04-14T06:33:00.790Z,1005
2017-04-14T06:34:02.764Z,1005
2017-04-14T06:35:04.696Z,1005
2017-04-14T06:36:06.520Z,1005
2017-04-14T06:37:08.330Z,1005
2017-04-14T06:38:10.154Z,1005.1
2017-04-14T06:39:11.960Z,1005.1
2017-04-14T06:40:13.769Z,1005
2017-04-14T06:41:15.582Z,1005
2017-04-14T06:42:17.400Z,1005
2017-04-14T06:43:19.220Z,1005
2017-04-14T06:44:21.371Z,1005
2017-04-14T06:45:23.543Z,1005
2017-04-14T06:46:25.488Z,1005.1
2017-04-14T06:47:27.310Z,1005
2017-04-14T06:48:29.112Z,1005.1
2017-04-14T06:49:31.024Z,1005.1
2017-04-14T06:50:32.844Z,1005.1
2017-04-14T06:51:34.654Z,1005
2017-04-14T06:52:36.596Z,1005
2017-04-14T06:53:38.422Z,1005
2017-04-14T06:54:40.226Z,1005
2017-04-14T06:55:42.034Z,1005.1
2017-04-14T06:56:43.855Z,1005
2017-04-14T06:57:45.807Z,1005.1
2017-04-14T06:58:47.963Z,1005.1
2017-04-14T06:59:49.789Z,1005
2017-04-14T07:00:51.608Z,1005.1
2017-04-14T07:01:53.759Z,1005.1
2017-04-14T07:02:56.257Z,1005.1
2017-04-14T07:03:58.066Z,1005.1
2017-04-14T07:04:59.894Z,1005.2
2017-04-14T07:06:02.052Z,1005.1
2017-04-14T07:07:03.976Z,1005.1
2017-04-14T07:08:05.785Z,1005.1
2017-04-14T07:09:08.031Z,1005.1
2017-04-14T07:10:10.275Z,1005.1
2017-04-14T07:11:12.937Z,1005.1
2017-04-14T07:12:16.512Z,1005
2017-04-14T07:13:18.750Z,1005.1
2017-04-14T07:14:20.644Z,1005.1
2017-04-14T07:15:22.850Z,1005.1
2017-04-14T07:16:24.688Z,1005.1
2017-04-14T07:17:26.664Z,1005.1
2017-04-14T07:18:29.616Z,1005.1
2017-04-14T07:19:32.145Z,1005.1
2017-04-14T07:20:34.835Z,1005
2017-04-14T07:21:37.957Z,1005.1
2017-04-14T07:22:39.817Z,1005.1
2017-04-14T07:23:41.892Z,1005
2017-04-14T07:24:43.722Z,1005.1
2017-04-14T07:25:45.643Z,1005.1
2017-04-14T07:26:47.458Z,1005.1
2017-04-14T07:27:49.612Z,1005.1
2017-04-14T07:28:51.768Z,1005.1
2017-04-14T07:29:53.604Z,1005.1
2017-04-14T07:30:55.812Z,1005.1
2017-04-14T07:31:57.627Z,1005.1
2017-04-14T07:32:59.440Z,1005.2
2017-04-14T07:34:01.281Z,1005.1
2017-04-14T07:35:03.209Z,1005.1
2017-04-14T07:36:05.030Z,1005.1
2017-04-14T07:37:06.832Z,1005
2017-04-14T07:38:08.645Z,1005.1
2017-04-14T07:39:10.864Z,1005.1
2017-04-14T07:40:12.798Z,1005.1
2017-04-14T07:41:14.654Z,1005
2017-04-14T07:42:16.808Z,1005
2017-04-14T07:43:18.707Z,1005
2017-04-14T07:44:20.537Z,1005
2017-04-14T07:45:22.717Z,1005
2017-04-14T07:46:24.522Z,1004.9
2017-04-14T07:47:26.607Z,1005
2017-04-14T07:48:28.424Z,1004.9
2017-04-14T07:49:30.250Z,1005
2017-04-14T07:50:32.062Z,1004.9
2017-04-14T07:51:33.885Z,1005
2017-04-14T07:52:35.752Z,1004.9
2017-04-14T07:53:37.910Z,1005
2017-04-14T07:54:40.092Z,1005
2017-04-14T07:55:41.910Z,1004.9
2017-04-14T07:56:43.731Z,1005
2017-04-14T07:57:45.766Z,1005
2017-04-14T07:58:47.572Z,1005
2017-04-14T07:59:49.384Z,1005
2017-04-14T08:00:51.207Z,1005
2017-04-14T08:01:53.013Z,1005
2017-04-14T08:02:54.835Z,1005
2017-04-14T08:03:56.649Z,1005.1
2017-04-14T08:04:58.459Z,1005
2017-04-14T08:06:00.616Z,1005.1
2017-04-14T08:07:02.433Z,1005
2017-04-14T08:08:04.236Z,1005.1
2017-04-14T08:09:06.154Z,1005.1
2017-04-14T08:10:08.022Z,1005
2017-04-14T08:11:09.873Z,1005
2017-04-14T08:12:11.740Z,1005.1
2017-04-14T08:13:13.641Z,1005
2017-04-14T08:14:15.800Z,1005.1
2017-04-14T08:15:17.619Z,1005.1
2017-04-14T08:16:19.441Z,1005.1
2017-04-14T08:17:21.268Z,1005.1
2017-04-14T08:18:23.089Z,1005.1
2017-04-14T08:19:25.238Z,1005.1
2017-04-14T08:20:27.057Z,1005
2017-04-14T08:21:28.872Z,1005
2017-04-14T08:22:30.685Z,1005.1
2017-04-14T08:23:32.504Z,1005
2017-04-14T08:24:34.398Z,1005.1
2017-04-14T08:25:36.211Z,1005
2017-04-14T08:26:38.042Z,1005.1
2017-04-14T08:27:39.856Z,1005
2017-04-14T08:28:41.676Z,1005
2017-04-14T08:29:43.829Z,1005
2017-04-14T08:30:45.667Z,1005.1
2017-04-14T08:31:47.477Z,1005
2017-04-14T08:32:49.293Z,1005.1
2017-04-14T08:33:51.114Z,1005.1
2017-04-14T08:34:53.275Z,1005
2017-04-14T08:35:55.090Z,1005.1
2017-04-14T08:36:56.902Z,1005
2017-04-14T08:37:59.057Z,1005.1
2017-04-14T08:39:00.888Z,1005
2017-04-14T08:40:02.704Z,1005.1
2017-04-14T08:41:04.513Z,1005
2017-04-14T08:42:06.330Z,1005.1
2017-04-14T08:43:08.144Z,1005
2017-04-14T08:44:09.966Z,1005
2017-04-14T08:45:11.777Z,1005
2017-04-14T08:46:13.594Z,1005.1
2017-04-14T08:47:15.405Z,1005
2017-04-14T08:48:17.230Z,1005
2017-04-14T08:49:19.090Z,1005.1
2017-04-14T08:50:20.912Z,1005.1
2017-04-14T08:51:22.720Z,1005
2017-04-14T08:52:24.847Z,1005.1
2017-04-14T08:53:26.662Z,1005.1
2017-04-14T08:54:28.821Z,1005.1
2017-04-14T08:55:30.645Z,1005
2017-04-14T08:56:32.464Z,1005.1
2017-04-14T08:57:34.278Z,1005
2017-04-14T08:58:36.302Z,1005.1
2017-04-14T08:59:38.121Z,1005
2017-04-14T09:00:39.931Z,1005
2017-04-14T09:01:42.102Z,1005.1
2017-04-14T09:02:43.919Z,1005.1
2017-04-14T09:03:45.735Z,1005.1
2017-04-14T09:04:47.550Z,1005.2
2017-04-14T09:05:49.371Z,1005
2017-04-14T09:06:51.185Z,1005.1
2017-04-14T09:07:53.005Z,1005.1
2017-04-14T09:08:54.834Z,1005.1
2017-04-14T09:09:56.997Z,1005.1
2017-04-14T09:10:59.146Z,1005.1
2017-04-14T09:12:00.976Z,1005.1
2017-04-14T09:13:02.800Z,1005.1
2017-04-14T09:14:04.616Z,1005.1
2017-04-14T09:15:06.436Z,1005.2
2017-04-14T09:16:08.588Z,1005.2
2017-04-14T09:17:10.420Z,1005.2
2017-04-14T09:18:12.238Z,1005.2
2017-04-14T09:19:14.076Z,1005.1
2017-04-14T09:20:15.882Z,1005.1
2017-04-14T09:21:17.717Z,1005.1
2017-04-14T09:22:19.867Z,1005.1
2017-04-14T09:23:21.682Z,1005.1
2017-04-14T09:24:23.500Z,1005.2
2017-04-14T09:25:25.320Z,1005.1
2017-04-14T09:26:27.475Z,1005.1
2017-04-14T09:27:29.295Z,1005.1
2017-04-14T09:28:31.107Z,1005.1
2017-04-14T09:29:33.261Z,1005.1
2017-04-14T09:30:35.086Z,1005.1
2017-04-14T09:31:36.902Z,1005
2017-04-14T09:32:39.051Z,1004.9
2017-04-14T09:33:40.894Z,1005
2017-04-14T09:34:43.105Z,1005.1
2017-04-14T09:35:44.928Z,1005.1
2017-04-14T09:36:46.745Z,1005
2017-04-14T09:37:48.560Z,1005.1
2017-04-14T09:38:50.386Z,1005.1
2017-04-14T09:39:52.207Z,1005
2017-04-14T09:40:54.388Z,1005.1
2017-04-14T09:41:56.199Z,1005
2017-04-14T09:42:58.026Z,1005
2017-04-14T09:43:59.862Z,1005
2017-04-14T09:45:02.012Z,1004.9
2017-04-14T09:46:04.515Z,1005
2017-04-14T09:47:06.828Z,1005
2017-04-14T09:48:08.640Z,1004.9
2017-04-14T09:49:10.461Z,1005
2017-04-14T09:50:12.289Z,1005
2017-04-14T09:51:14.108Z,1005
2017-04-14T09:52:16.236Z,1005
2017-04-14T09:53:18.048Z,1005
2017-04-14T09:54:19.879Z,1005
2017-04-14T09:55:21.696Z,1005
2017-04-14T09:56:23.519Z,1004.9
2017-04-14T09:57:25.328Z,1004.9
2017-04-14T09:58:27.154Z,1004.9
2017-04-14T09:59:28.964Z,1004.9
2017-04-14T10:00:30.790Z,1004.8
2017-04-14T10:01:32.594Z,1004.9
2017-04-14T10:02:34.420Z,1004.9
2017-04-14T10:03:36.577Z,1004.8
2017-04-14T10:04:38.407Z,1004.8
2017-04-14T10:05:40.215Z,1004.8
2017-04-14T10:06:42.031Z,1004.8
2017-04-14T10:07:43.848Z,1004.8
2017-04-14T10:08:45.665Z,1004.8
2017-04-14T10:09:47.482Z,1004.8
2017-04-14T10:10:49.296Z,1004.8
2017-04-14T10:11:51.461Z,1004.9
2017-04-14T10:12:53.281Z,1004.8
2017-04-14T10:13:55.107Z,1004.8
2017-04-14T10:14:56.962Z,1004.8
2017-04-14T10:15:58.796Z,1004.8
2017-04-14T10:17:00.959Z,1004.8
2017-04-14T10:18:02.788Z,1004.8
2017-04-14T10:19:05.294Z,1004.9
2017-04-14T10:20:07.125Z,1004.8
2017-04-14T10:21:08.941Z,1004.8
2017-04-14T10:22:10.765Z,1004.7
2017-04-14T10:23:12.574Z,1004.7
2017-04-14T10:24:14.401Z,1004.8
2017-04-14T10:25:16.561Z,1004.8
2017-04-14T10:26:18.392Z,1004.8
2017-04-14T10:27:20.202Z,1004.8
2017-04-14T10:28:22.031Z,1004.7
2017-04-14T10:29:23.854Z,1004.7
2017-04-14T10:30:25.729Z,1004.6
2017-04-14T10:31:27.534Z,1004.7
2017-04-14T10:32:29.361Z,1004.8
2017-04-14T10:33:31.183Z,1004.8
2017-04-14T10:34:33.345Z,1004.7
2017-04-14T10:35:35.170Z,1004.8
2017-04-14T10:36:36.994Z,1004.7
2017-04-14T10:37:38.813Z,1004.6
2017-04-14T10:38:40.653Z,1004.6
2017-04-14T10:39:42.466Z,1004.7
2017-04-14T10:40:44.633Z,1004.7
2017-04-14T10:41:46.456Z,1004.7
2017-04-14T10:42:48.287Z,1004.7
2017-04-14T10:43:50.106Z,1004.7
2017-04-14T10:44:51.928Z,1004.7
2017-04-14T10:45:54.095Z,1004.7
2017-04-14T10:46:55.911Z,1004.8
2017-04-14T10:47:57.733Z,1004.9
2017-04-14T10:48:59.545Z,1004.8
2017-04-14T10:50:01.366Z,1004.8
2017-04-14T10:51:03.203Z,1004.8
2017-04-14T10:52:05.020Z,1004.8
2017-04-14T10:53:06.840Z,1004.7
2017-04-14T10:54:08.654Z,1004.8
2017-04-14T10:55:10.481Z,1004.8
2017-04-14T10:56:12.309Z,1004.8
2017-04-14T10:57:14.465Z,1004.8
2017-04-14T10:58:16.294Z,1004.8
2017-04-14T10:59:18.114Z,1004.7
2017-04-14T11:00:19.943Z,1004.8
2017-04-14T11:01:21.770Z,1004.8
2017-04-14T11:02:23.582Z,1004.9
2017-04-14T11:03:25.408Z,1004.8
2017-04-14T11:04:27.240Z,1004.8
2017-04-14T11:05:29.066Z,1004.7
2017-04-14T11:06:30.889Z,1004.9
2017-04-14T11:07:32.712Z,1004.9
2017-04-14T11:08:34.535Z,1004.8
2017-04-14T11:09:36.348Z,1004.7
2017-04-14T11:10:38.178Z,1004.8
2017-04-14T11:11:40.004Z,1004.8
2017-04-14T11:12:41.810Z,1004.7
2017-04-14T11:13:43.979Z,1004.7
2017-04-14T11:14:46.155Z,1004.7
2017-04-14T11:15:47.992Z,1004.7
2017-04-14T11:16:49.809Z,1004.6
2017-04-14T11:17:51.622Z,1004.7
2017-04-14T11:18:53.447Z,1004.6
2017-04-14T11:19:55.276Z,1004.7
2017-04-14T11:20:57.108Z,1004.6
2017-04-14T11:21:58.930Z,1004.6
2017-04-14T11:23:00.758Z,1004.6
2017-04-14T11:24:02.594Z,1004.6
2017-04-14T11:25:04.419Z,1004.6
2017-04-14T11:26:06.236Z,1004.7
2017-04-14T11:27:08.064Z,1004.6
2017-04-14T11:28:09.885Z,1004.5
2017-04-14T11:29:11.716Z,1004.6
2017-04-14T11:30:13.531Z,1004.5
2017-04-14T11:31:15.349Z,1004.5
2017-04-14T11:32:17.174Z,1004.6
2017-04-14T11:33:18.995Z,1004.6
2017-04-14T11:34:21.176Z,1004.5
2017-04-14T11:35:22.993Z,1004.6
2017-04-14T11:38:31.207Z,1004.6
2017-04-14T11:39:33.032Z,1004.5
2017-04-14T11:40:35.009Z,1004.6
2017-04-14T11:41:36.829Z,1004.5
2017-04-14T11:42:38.650Z,1004.6
2017-04-14T11:43:40.473Z,1004.6
2017-04-14T11:44:42.290Z,1004.6
2017-04-14T11:45:44.130Z,1004.6
2017-04-14T11:46:46.299Z,1004.6
2017-04-14T11:47:48.126Z,1004.6
2017-04-14T11:48:49.939Z,1004.8
2017-04-14T11:49:51.778Z,1004.7
2017-04-14T11:50:53.930Z,1004.7
2017-04-14T11:51:55.753Z,1004.7
2017-04-14T11:52:57.582Z,1004.7
2017-04-14T11:53:59.400Z,1004.8
2017-04-14T11:55:01.251Z,1004.7
2017-04-14T11:56:03.071Z,1004.8
2017-04-14T11:57:05.228Z,1004.8
2017-04-14T11:58:07.399Z,1004.8
2017-04-14T11:59:09.229Z,1004.9
2017-04-14T12:00:11.403Z,1004.8
2017-04-14T12:01:13.215Z,1004.9
2017-04-14T12:02:15.050Z,1005.1
2017-04-14T12:03:16.863Z,1005.2
2017-04-14T12:04:19.071Z,1005.2
2017-04-14T12:05:20.898Z,1005.2
2017-04-14T12:06:22.727Z,1005.4
2017-04-14T12:07:24.539Z,1005.3
2017-04-14T12:08:26.369Z,1005.4
2017-04-14T12:09:28.187Z,1005.5
2017-04-14T12:10:30.005Z,1005.5
2017-04-14T12:11:32.174Z,1005.4
2017-04-14T12:12:33.990Z,1005.5
2017-04-14T12:13:35.808Z,1005.4
2017-04-14T12:14:37.636Z,1005.3
2017-04-14T12:15:39.452Z,1005.2
2017-04-14T12:16:41.265Z,1005.2
2017-04-14T12:17:43.082Z,1005.1
2017-04-14T12:18:44.904Z,1005.1
2017-04-14T12:19:47.430Z,1005.1
2017-04-14T12:20:49.254Z,1005
2017-04-14T12:21:51.076Z,1005
2017-04-14T12:22:52.899Z,1005.1
2017-04-14T12:23:55.061Z,1005.1
2017-04-14T12:24:56.885Z,1005.2
2017-04-14T12:25:58.700Z,1005.2
2017-04-14T12:27:00.526Z,1005.2
2017-04-14T12:28:02.357Z,1005.2
2017-04-14T12:29:04.183Z,1005.2
2017-04-14T12:30:06.028Z,1005.2
2017-04-14T12:31:08.207Z,1005.2
2017-04-14T12:32:10.017Z,1005.2
2017-04-14T12:33:12.168Z,1005.2
2017-04-14T12:34:13.994Z,1005.2
2017-04-14T12:35:16.153Z,1005.2
2017-04-14T12:36:17.983Z,1005.3
2017-04-14T12:37:19.872Z,1005.2
2017-04-14T12:38:21.702Z,1005.2
2017-04-14T12:39:23.845Z,1005.3
2017-04-14T12:40:26.697Z,1005.2
2017-04-14T12:41:28.523Z,1005.3
2017-04-14T12:42:30.687Z,1005.2
2017-04-14T12:43:32.522Z,1005.2
2017-04-14T12:44:34.335Z,1005.2
2017-04-14T12:45:36.155Z,1005.1
2017-04-14T12:46:37.983Z,1005.1
2017-04-14T12:47:40.147Z,1005.1
2017-04-14T12:48:41.981Z,1005.1
2017-04-14T12:49:43.793Z,1005.1
2017-04-14T12:50:45.616Z,1005.1
2017-04-14T12:51:47.432Z,1005.1
2017-04-14T12:52:49.252Z,1005.1
2017-04-14T12:53:51.068Z,1005.1
2017-04-14T12:54:52.887Z,1005
2017-04-14T12:55:54.714Z,1005
2017-04-14T12:56:56.537Z,1005.1
2017-04-14T12:57:58.690Z,1005
2017-04-14T12:59:00.515Z,1005
2017-04-14T13:00:02.330Z,1005
2017-04-14T13:01:04.165Z,1005
2017-04-14T13:02:05.981Z,1005